createdAt,value
2017-12-03T00:00:09.602Z,8.25
2017-12-03T00:02:40.815Z,10.02
2017-12-03T00:05:12.427Z,10.88
2017-12-03T00:07:43.696Z,8.75
2017-12-03T00:10:15.391Z,6.65
2017-12-03T00:12:47.042Z,8.25
2017-12-03T00:15:19.289Z,12.60
2017-12-03T00:17:49.897Z,9.40
2017-12-03T00:20:20.537Z,7.65
2017-12-03T00:22:51.632Z,8.40
2017-12-03T00:25:22.989Z,9.57
2017-12-03T00:27:53.823Z,9.88
2017-12-03T00:30:24.630Z,12.60
2017-12-03T00:32:55.302Z,14.45
2017-12-03T00:35:25.994Z,19.02
2017-12-03T00:37:56.846Z,8.40
2017-12-03T00:40:28.334Z,8.02
2017-12-03T00:42:58.961Z,7.28
2017-12-03T00:45:30.027Z,6.00
2017-12-03T00:48:00.710Z,5.90
2017-12-03T00:50:31.458Z,7.25
2017-12-03T00:53:02.443Z,8.40
2017-12-03T00:55:33.111Z,8.05
2017-12-03T00:58:04.965Z,6.80
2017-12-03T01:00:36.442Z,6.60
2017-12-03T01:03:07.181Z,6.93
2017-12-03T01:05:38.213Z,9.20
2017-12-03T01:08:08.914Z,7.50
2017-12-03T01:10:40.418Z,8.88
2017-12-03T01:13:11.159Z,9.65
2017-12-03T01:15:42.257Z,8.77
2017-12-03T01:18:14.637Z,7.22
2017-12-03T01:20:45.915Z,7.90
2017-12-03T01:23:17.230Z,7.30
2017-12-03T01:25:49.147Z,7.30
2017-12-03T01:28:21.459Z,6.85
2017-12-03T01:30:53.027Z,6.47
2017-12-03T01:33:24.784Z,8.25
2017-12-03T01:35:56.420Z,8.85
2017-12-03T01:38:27.622Z,8.20
2017-12-03T01:40:59.283Z,6.85
2017-12-03T01:43:30.625Z,6.30
2017-12-03T01:46:02.056Z,7.20
2017-12-03T01:48:33.436Z,5.78
2017-12-03T01:51:04.502Z,8.77
2017-12-03T01:53:37.477Z,8.40
2017-12-03T01:56:09.089Z,9.93
2017-12-03T01:58:41.073Z,7.65
2017-12-03T02:01:12.595Z,7.82
2017-12-03T02:03:44.239Z,5.43
2017-12-03T02:06:16.261Z,5.53
2017-12-03T02:08:47.025Z,6.10
2017-12-03T02:11:17.794Z,6.57
2017-12-03T02:13:48.810Z,6.10
2017-12-03T02:16:19.517Z,6.22
2017-12-03T02:18:50.990Z,6.18
2017-12-03T02:21:22.013Z,5.97
2017-12-03T02:23:53.464Z,5.57
2017-12-03T02:26:25.030Z,5.97
2017-12-03T02:28:55.976Z,7.85
2017-12-03T02:31:26.700Z,7.50
2017-12-03T02:33:57.458Z,6.80
2017-12-03T02:36:28.466Z,7.70
2017-12-03T02:38:59.885Z,6.72
2017-12-03T02:41:30.880Z,5.65
2017-12-03T02:44:01.632Z,7.28
2017-12-03T02:46:32.272Z,7.20
2017-12-03T02:49:03.248Z,5.90
2017-12-03T02:51:35.386Z,5.83
2017-12-03T02:54:06.085Z,5.53
2017-12-03T02:56:36.871Z,5.50
2017-12-03T02:59:08.253Z,8.45
2017-12-03T03:01:40.134Z,5.65
2017-12-03T03:04:10.757Z,5.57
2017-12-03T03:06:41.460Z,6.90
2017-12-03T03:09:13.819Z,5.90
2017-12-03T03:11:45.589Z,6.22
2017-12-03T03:14:17.410Z,8.00
2017-12-03T03:16:49.118Z,5.17
2017-12-03T03:19:21.239Z,6.53
2017-12-03T03:21:52.611Z,6.87
2017-12-03T03:24:24.481Z,8.40
2017-12-03T03:26:55.698Z,7.35
2017-12-03T03:29:27.815Z,11.38
2017-12-03T03:31:58.906Z,8.82
2017-12-03T03:34:29.647Z,10.43
2017-12-03T03:37:00.682Z,8.23
2017-12-03T03:39:32.102Z,7.57
2017-12-03T03:42:03.620Z,8.95
2017-12-03T03:44:36.245Z,6.15
2017-12-03T03:47:07.257Z,5.70
2017-12-03T03:49:38.808Z,7.47
2017-12-03T03:52:10.114Z,6.68
2017-12-03T03:54:41.397Z,7.47
2017-12-03T03:57:12.946Z,5.80
2017-12-03T03:59:44.193Z,7.47
2017-12-03T04:02:15.770Z,6.40
2017-12-03T04:04:47.438Z,6.68
2017-12-03T04:07:19.002Z,7.22
2017-12-03T04:09:50.284Z,10.10
2017-12-03T04:12:22.215Z,6.45
2017-12-03T04:14:54.735Z,9.77
2017-12-03T04:17:26.049Z,7.57
2017-12-03T04:19:57.391Z,5.95
2017-12-03T04:22:29.198Z,7.30
2017-12-03T04:25:00.981Z,13.45
2017-12-03T04:27:32.979Z,7.93
2017-12-03T04:30:04.574Z,7.15
2017-12-03T04:32:35.840Z,7.90
2017-12-03T04:35:07.283Z,7.53
2017-12-03T04:37:38.334Z,5.90
2017-12-03T04:40:09.769Z,8.80
2017-12-03T04:42:41.061Z,7.20
2017-12-03T04:45:12.931Z,9.88
2017-12-03T04:47:44.430Z,20.80
2017-12-03T04:50:15.414Z,18.27
2017-12-03T04:52:47.057Z,20.80
2017-12-03T04:55:18.396Z,20.87
2017-12-03T04:57:50.175Z,24.83
2017-12-03T05:00:21.628Z,28.20
2017-12-03T05:02:53.228Z,29.90
2017-12-03T05:05:24.902Z,32.40
2017-12-03T05:07:56.288Z,32.03
2017-12-03T05:10:28.276Z,33.25
2017-12-03T05:13:00.892Z,29.70
2017-12-03T05:15:32.458Z,30.80
2017-12-03T05:18:04.402Z,29.40
2017-12-03T05:20:35.807Z,31.60
2017-12-03T05:23:07.713Z,32.13
2017-12-03T05:25:39.413Z,34.30
2017-12-03T05:28:13.537Z,30.62
2017-12-03T05:30:45.279Z,30.58
2017-12-03T05:33:17.314Z,30.42
2017-12-03T05:35:48.667Z,28.08
2017-12-03T05:38:19.666Z,27.98
2017-12-03T05:40:50.406Z,28.33
2017-12-03T05:43:21.098Z,30.08
2017-12-03T05:45:51.867Z,31.30
2017-12-03T05:48:22.627Z,31.95
2017-12-03T05:50:53.949Z,33.85
2017-12-03T05:53:25.414Z,31.73
2017-12-03T05:55:56.156Z,28.60
2017-12-03T05:58:27.232Z,31.15
2017-12-03T06:00:58.471Z,31.73
2017-12-03T06:03:29.182Z,31.83
2017-12-03T06:06:00.211Z,32.30
2017-12-03T06:08:32.449Z,30.35
2017-12-03T06:11:04.016Z,20.10
2017-12-03T06:13:34.738Z,17.83
2017-12-03T06:16:06.273Z,12.20
2017-12-03T06:18:37.859Z,12.80
2017-12-03T06:21:08.499Z,11.00
2017-12-03T06:23:40.491Z,8.95
2017-12-03T06:26:11.681Z,9.68
2017-12-03T06:28:43.101Z,10.32
2017-12-03T06:31:14.655Z,11.55
2017-12-03T06:33:45.322Z,12.30
2017-12-03T06:36:16.314Z,8.75
2017-12-03T06:38:47.713Z,8.47
2017-12-03T06:41:19.581Z,9.90
2017-12-03T06:43:51.135Z,9.65
2017-12-03T06:46:21.935Z,9.80
2017-12-03T06:48:52.723Z,7.47
2017-12-03T06:51:24.511Z,8.40
2017-12-03T06:53:55.198Z,13.38
2017-12-03T06:56:26.130Z,10.20
2017-12-03T06:58:57.694Z,14.68
2017-12-03T07:01:29.463Z,8.18
2017-12-03T07:04:01.054Z,9.73
2017-12-03T07:06:32.459Z,9.65
2017-12-03T07:09:03.727Z,8.10
2017-12-03T07:11:34.764Z,9.70
2017-12-03T07:14:05.488Z,8.57
2017-12-03T07:16:36.254Z,7.93
2017-12-03T07:19:08.019Z,8.68
2017-12-03T07:21:38.868Z,8.20
2017-12-03T07:24:10.280Z,11.50
2017-12-03T07:26:42.050Z,11.25
2017-12-03T07:29:14.187Z,9.33
2017-12-03T07:31:45.694Z,6.32
2017-12-03T07:34:16.921Z,6.70
2017-12-03T07:36:47.557Z,7.18
2017-12-03T07:39:19.045Z,7.33
2017-12-03T07:41:51.816Z,6.80
2017-12-03T07:44:22.672Z,8.63
2017-12-03T07:46:53.458Z,7.03
2017-12-03T07:49:25.174Z,8.43
2017-12-03T07:51:57.382Z,6.95
2017-12-03T07:54:28.759Z,10.57
2017-12-03T07:57:00.386Z,7.30
2017-12-03T07:59:31.206Z,8.35
2017-12-03T08:02:02.202Z,12.10
2017-12-03T08:04:33.667Z,20.15
2017-12-03T08:07:04.430Z,17.50
2017-12-03T08:09:36.098Z,9.73
2017-12-03T08:12:06.802Z,8.85
2017-12-03T08:14:37.552Z,8.73
2017-12-03T08:17:08.582Z,7.70
2017-12-03T08:19:39.474Z,10.27
2017-12-03T08:22:11.303Z,7.30
2017-12-03T08:24:42.119Z,8.90
2017-12-03T08:27:12.775Z,8.90
2017-12-03T08:29:43.811Z,6.45
2017-12-03T08:32:14.599Z,7.03
2017-12-03T08:34:45.377Z,8.77
2017-12-03T08:37:16.344Z,9.27
2017-12-03T08:39:48.434Z,15.85
2017-12-03T08:42:19.441Z,7.75
2017-12-03T08:44:50.164Z,5.80
2017-12-03T08:47:21.763Z,7.45
2017-12-03T08:49:53.052Z,6.35
2017-12-03T08:52:24.226Z,8.18
2017-12-03T08:54:56.865Z,7.20
2017-12-03T08:57:28.558Z,6.87
2017-12-03T08:59:59.978Z,6.10
2017-12-03T09:02:31.018Z,9.30
2017-12-03T09:05:02.001Z,6.85
2017-12-03T09:07:33.807Z,11.10
2017-12-03T09:10:07.604Z,7.65
2017-12-03T09:12:39.787Z,8.35
2017-12-03T09:15:11.708Z,7.95
2017-12-03T09:17:42.345Z,8.77
2017-12-03T09:20:13.607Z,7.70
2017-12-03T09:22:45.317Z,8.55
2017-12-03T09:25:16.158Z,8.50
2017-12-03T09:27:47.775Z,8.13
2017-12-03T09:30:19.638Z,8.50
2017-12-03T09:32:50.603Z,9.07
2017-12-03T09:35:22.190Z,8.32
2017-12-03T09:37:53.279Z,8.30
2017-12-03T09:40:24.002Z,8.68
2017-12-03T09:42:54.726Z,10.45
2017-12-03T09:45:25.989Z,10.20
2017-12-03T09:47:56.711Z,7.30
2017-12-03T09:50:28.382Z,9.80
2017-12-03T09:52:59.424Z,6.82
2017-12-03T09:55:30.209Z,6.65
2017-12-03T09:58:00.942Z,8.25
2017-12-03T10:00:32.453Z,10.95
2017-12-03T10:03:03.179Z,11.77
2017-12-03T10:05:34.093Z,9.40
2017-12-03T10:08:04.914Z,6.55
2017-12-03T10:10:35.541Z,10.15
2017-12-03T10:13:06.549Z,17.00
2017-12-03T10:15:38.082Z,8.48
2017-12-03T10:18:08.915Z,9.07
2017-12-03T10:20:40.877Z,10.38
2017-12-03T10:23:11.596Z,17.45
2017-12-03T10:25:42.337Z,8.68
2017-12-03T10:28:13.060Z,11.85
2017-12-03T10:30:43.989Z,11.73
2017-12-03T10:33:15.107Z,16.95
2017-12-03T10:35:45.844Z,12.48
2017-12-03T10:38:18.416Z,10.00
2017-12-03T10:40:49.787Z,8.60
2017-12-03T10:43:20.867Z,8.25
2017-12-03T10:45:52.445Z,16.05
2017-12-03T10:48:24.172Z,8.23
2017-12-03T10:50:55.020Z,11.68
2017-12-03T10:53:26.559Z,11.90
2017-12-03T10:55:58.225Z,8.80
2017-12-03T10:58:28.896Z,15.00
2017-12-03T11:00:59.739Z,15.27
2017-12-03T11:03:30.671Z,12.55
2017-12-03T11:06:01.387Z,9.07
2017-12-03T11:08:33.142Z,8.55
2017-12-03T11:11:04.740Z,8.57
2017-12-03T11:13:35.441Z,9.68
2017-12-03T11:16:06.564Z,8.37
2017-12-03T11:18:38.103Z,11.38
2017-12-03T11:21:09.706Z,19.00
2017-12-03T11:23:40.450Z,20.88
2017-12-03T11:26:11.065Z,21.87
2017-12-03T11:28:42.136Z,20.33
2017-12-03T11:31:12.781Z,21.50
2017-12-03T11:33:43.512Z,19.48
2017-12-03T11:36:14.722Z,20.33
2017-12-03T11:38:45.595Z,24.23
2017-12-03T11:41:16.457Z,22.40
2017-12-03T11:43:49.797Z,24.25
2017-12-03T11:46:20.550Z,24.63
2017-12-03T11:48:51.613Z,25.45
2017-12-03T11:51:22.396Z,21.30
2017-12-03T11:54:25.232Z,14.15
2017-12-03T11:56:56.186Z,16.15
2017-12-03T11:59:27.348Z,17.23
2017-12-03T12:01:58.631Z,27.92
2017-12-03T12:04:30.305Z,27.25
2017-12-03T12:07:02.066Z,27.65
2017-12-03T12:09:32.788Z,28.90
2017-12-03T12:12:03.831Z,25.07
2017-12-03T12:14:34.635Z,26.33
2017-12-03T12:17:05.326Z,32.72
2017-12-03T12:19:36.092Z,28.30
2017-12-03T12:22:07.116Z,32.60
2017-12-03T12:24:38.878Z,31.08
2017-12-03T12:27:10.386Z,30.77
2017-12-03T12:29:41.226Z,33.70
2017-12-03T12:32:12.312Z,29.85
2017-12-03T12:34:43.215Z,26.92
2017-12-03T12:37:14.098Z,28.83
2017-12-03T12:39:45.142Z,30.50
2017-12-03T12:42:16.084Z,28.15
2017-12-03T12:44:46.837Z,24.42
2017-12-03T12:47:17.947Z,22.80
2017-12-03T12:49:48.991Z,26.47
2017-12-03T12:52:21.523Z,27.67
2017-12-03T12:54:52.798Z,28.58
2017-12-03T12:57:25.131Z,32.05
2017-12-03T12:59:56.302Z,32.20
2017-12-03T13:02:27.515Z,34.33
2017-12-03T13:07:21.228Z,38.83
2017-12-03T13:09:52.941Z,39.63
2017-12-03T13:12:24.280Z,38.03
2017-12-03T13:14:55.261Z,39.60
2017-12-03T13:17:26.414Z,39.33
2017-12-03T13:19:57.642Z,43.27
2017-12-03T13:22:29.630Z,43.63
2017-12-03T13:25:00.621Z,37.60
2017-12-03T13:27:31.954Z,34.67
2017-12-03T13:30:02.877Z,29.80
2017-12-03T13:32:33.920Z,29.58
2017-12-03T13:35:04.930Z,32.33
2017-12-03T13:37:36.802Z,32.95
2017-12-03T13:40:08.093Z,38.03
2017-12-03T13:42:39.093Z,36.30
2017-12-03T13:45:10.699Z,34.50
2017-12-03T13:47:42.807Z,55.47
2017-12-03T13:50:13.878Z,37.67
2017-12-03T13:52:45.888Z,35.80
2017-12-03T13:55:17.261Z,34.10
2017-12-03T13:57:48.434Z,34.08
2017-12-03T14:00:19.661Z,34.75
2017-12-03T14:02:52.027Z,36.20
2017-12-03T14:05:23.136Z,35.20
2017-12-03T14:07:55.962Z,38.13
2017-12-03T14:10:28.111Z,35.90
2017-12-03T14:12:59.341Z,35.10
2017-12-03T14:15:31.638Z,38.17
2017-12-03T14:18:02.866Z,37.50
2017-12-03T14:20:33.862Z,40.20
2017-12-03T14:23:05.255Z,35.08
2017-12-03T14:25:36.488Z,37.40
2017-12-03T14:28:07.482Z,37.33
2017-12-03T14:30:38.785Z,34.03
2017-12-03T14:33:09.815Z,36.08
2017-12-03T14:35:40.913Z,38.22
2017-12-03T14:38:12.341Z,33.40
2017-12-03T14:40:43.322Z,33.53
2017-12-03T14:43:14.598Z,32.88
2017-12-03T14:45:46.030Z,30.37
2017-12-03T14:48:17.976Z,31.15
2017-12-03T14:50:48.941Z,33.03
2017-12-03T14:53:21.011Z,33.80
2017-12-03T14:55:53.600Z,37.50
2017-12-03T14:58:24.738Z,42.88
2017-12-03T15:00:55.819Z,47.30
2017-12-03T15:03:26.988Z,40.97
2017-12-03T15:05:59.083Z,39.75
2017-12-03T15:08:30.177Z,37.43
2017-12-03T15:11:01.378Z,41.25
2017-12-03T15:13:32.361Z,39.55
2017-12-03T15:16:03.826Z,44.97
2017-12-03T15:18:35.318Z,40.90
2017-12-03T15:21:09.499Z,42.47
2017-12-03T15:23:41.541Z,40.73
2017-12-03T15:26:12.635Z,42.25
2017-12-03T15:28:44.047Z,40.35
2017-12-03T15:31:15.490Z,40.45
2017-12-03T15:33:46.505Z,38.97
2017-12-03T15:36:18.403Z,30.83
2017-12-03T15:38:49.590Z,21.45
2017-12-03T15:41:20.750Z,31.48
2017-12-03T15:43:52.237Z,37.53
2017-12-03T15:46:23.256Z,20.05
2017-12-03T15:48:55.074Z,16.55
2017-12-03T15:51:26.080Z,20.35
2017-12-03T15:53:57.170Z,17.40
2017-12-03T15:56:28.855Z,13.35
2017-12-03T15:59:00.700Z,11.80
2017-12-03T16:01:31.847Z,10.57
2017-12-03T16:04:03.222Z,11.35
2017-12-03T16:06:34.480Z,13.82
2017-12-03T16:09:06.311Z,13.00
2017-12-03T16:11:39.479Z,15.52
2017-12-03T16:14:11.484Z,12.70
2017-12-03T16:16:44.269Z,16.92
2017-12-03T16:19:15.857Z,12.88
2017-12-03T16:21:47.181Z,12.13
2017-12-03T16:24:19.882Z,10.23
2017-12-03T16:26:52.118Z,11.05
2017-12-03T16:29:23.788Z,10.10
2017-12-03T16:31:54.977Z,11.63
2017-12-03T16:34:26.240Z,12.98
2017-12-03T16:36:57.863Z,22.05
2017-12-03T16:39:29.601Z,12.60
2017-12-03T16:42:01.195Z,11.82
2017-12-03T16:44:32.550Z,12.17
2017-12-03T16:47:05.610Z,11.93
2017-12-03T16:49:38.987Z,30.60
2017-12-03T16:52:10.373Z,24.30
2017-12-03T16:54:41.571Z,16.10
2017-12-03T16:57:13.819Z,14.50
2017-12-03T16:59:46.671Z,13.57
2017-12-03T17:02:18.674Z,10.95
2017-12-03T17:04:51.113Z,14.68
2017-12-03T17:07:22.388Z,13.18
2017-12-03T17:09:54.164Z,15.48
2017-12-03T17:12:25.185Z,11.75
2017-12-03T17:14:56.728Z,14.30
2017-12-03T17:17:27.871Z,13.20
2017-12-03T17:19:59.766Z,9.05
2017-12-03T17:22:32.095Z,16.70
2017-12-03T17:25:03.150Z,13.47
2017-12-03T17:27:34.192Z,13.23
2017-12-03T17:30:06.254Z,11.12
2017-12-03T17:32:38.141Z,10.88
2017-12-03T17:35:09.462Z,17.58
2017-12-03T17:37:40.678Z,14.20
2017-12-03T17:40:11.850Z,14.75
2017-12-03T17:42:42.872Z,15.75
2017-12-03T17:45:13.964Z,13.90
2017-12-03T17:47:46.071Z,10.55
2017-12-03T17:50:17.034Z,11.82
2017-12-03T17:52:48.167Z,10.00
2017-12-03T17:55:19.403Z,8.60
2017-12-03T17:57:50.338Z,8.80
2017-12-03T18:00:21.319Z,8.65
2017-12-03T18:02:52.558Z,11.20
2017-12-03T18:05:24.438Z,8.50
2017-12-03T18:07:55.339Z,11.50
2017-12-03T18:10:26.639Z,10.80
2017-12-03T18:12:59.471Z,14.55
2017-12-03T18:15:30.453Z,15.48
2017-12-03T18:18:02.239Z,18.25
2017-12-03T18:20:33.230Z,14.07
2017-12-03T18:23:04.508Z,19.42
2017-12-03T18:25:35.530Z,21.90
2017-12-03T18:28:07.733Z,16.75
2017-12-03T18:30:39.062Z,15.60
2017-12-03T18:33:10.113Z,15.30
2017-12-03T18:35:42.275Z,14.97
2017-12-03T18:38:14.022Z,11.52
2017-12-03T18:40:45.766Z,11.18
2017-12-03T18:43:16.987Z,11.55
2017-12-03T18:45:49.592Z,9.90
2017-12-03T18:48:21.069Z,11.70
2017-12-03T18:50:52.321Z,8.20
2017-12-03T18:53:27.258Z,9.57
2017-12-03T18:56:03.896Z,9.10
2017-12-03T18:58:35.882Z,9.73
2017-12-03T19:01:08.248Z,8.23
2017-12-03T19:03:40.298Z,11.95
2017-12-03T19:06:11.764Z,8.45
2017-12-03T19:08:47.594Z,8.73
2017-12-03T19:11:20.031Z,8.45
2017-12-03T19:13:51.211Z,9.05
2017-12-03T19:16:23.600Z,9.60
2017-12-03T19:18:54.817Z,8.88
2017-12-03T19:21:28.368Z,11.18
2017-12-03T19:24:00.889Z,11.20
2017-12-03T19:26:32.038Z,10.50
2017-12-03T19:29:03.903Z,10.07
2017-12-03T19:31:35.756Z,8.70
2017-12-03T19:34:08.614Z,12.88
2017-12-03T19:36:39.682Z,10.93
2017-12-03T19:39:10.815Z,7.70
2017-12-03T19:41:42.134Z,8.52
2017-12-03T19:44:13.102Z,7.87
2017-12-03T19:46:45.219Z,9.20
2017-12-03T19:49:16.195Z,6.70
2017-12-03T19:51:48.743Z,8.20
2017-12-03T19:54:22.505Z,10.30
2017-12-03T20:11:36.334Z,8.13
2017-12-03T20:14:09.074Z,9.77
2017-12-03T20:16:40.412Z,8.25
2017-12-03T20:19:11.974Z,7.87
2017-12-03T20:21:43.126Z,8.68
2017-12-03T20:24:15.158Z,8.07
2017-12-03T20:26:46.953Z,9.40
2017-12-03T20:29:19.051Z,7.30
2017-12-03T20:31:51.010Z,7.70
2017-12-03T20:34:22.151Z,6.47
2017-12-03T20:36:53.637Z,9.75
2017-12-03T20:39:24.973Z,8.20
2017-12-03T20:41:57.745Z,9.52
2017-12-03T20:44:29.401Z,10.73
2017-12-03T20:47:01.311Z,7.75
2017-12-03T20:49:33.089Z,9.05
2017-12-03T20:52:05.189Z,8.67
2017-12-03T20:54:36.617Z,8.50
2017-12-03T20:57:07.635Z,7.03
2017-12-03T20:59:39.496Z,6.62
2017-12-03T21:02:10.494Z,8.27
2017-12-03T21:04:41.555Z,6.60
2017-12-03T21:07:13.313Z,9.05
2017-12-03T21:09:44.592Z,6.07
2017-12-03T21:12:15.906Z,6.60
2017-12-03T21:14:48.842Z,6.43
2017-12-03T21:17:20.579Z,7.30
2017-12-03T21:19:51.730Z,8.15
2017-12-03T21:22:23.670Z,6.90
2017-12-03T21:24:54.838Z,7.40
2017-12-03T21:27:26.235Z,7.00
2017-12-03T21:29:57.867Z,7.70
2017-12-03T21:32:29.697Z,7.68
2017-12-03T21:35:01.241Z,7.07
2017-12-03T21:37:32.939Z,6.50
2017-12-03T21:40:05.102Z,7.22
2017-12-03T21:42:36.224Z,6.62
2017-12-03T21:45:07.258Z,9.30
2017-12-03T21:47:38.201Z,7.30
2017-12-03T21:50:09.844Z,10.18
2017-12-03T21:52:41.114Z,6.53
2017-12-03T21:55:13.370Z,6.85
2017-12-03T21:57:45.146Z,7.32
2017-12-03T22:00:19.026Z,8.25
2017-12-03T22:02:51.435Z,6.43
2017-12-03T22:05:23.639Z,7.05
2017-12-03T22:07:55.195Z,6.82
2017-12-03T22:10:28.116Z,6.93
2017-12-03T22:12:59.872Z,6.57
2017-12-03T22:15:31.450Z,8.02
2017-12-03T22:18:03.338Z,7.78
2017-12-03T22:20:34.388Z,7.40
2017-12-03T22:23:06.230Z,7.53
2017-12-03T22:25:38.050Z,7.62
2017-12-03T22:28:09.031Z,9.20
2017-12-03T22:30:40.240Z,5.72
2017-12-03T22:33:11.718Z,7.75
2017-12-03T22:35:43.777Z,6.20
2017-12-03T22:38:14.851Z,6.57
2017-12-03T22:40:45.878Z,7.00
2017-12-03T22:43:17.167Z,7.40
2017-12-03T22:45:48.155Z,6.47
2017-12-03T22:48:19.158Z,5.93
2017-12-03T22:50:50.193Z,6.90
2017-12-03T22:53:21.393Z,7.40
2017-12-03T22:55:53.293Z,7.12
2017-12-03T22:58:25.078Z,9.10
2017-12-03T23:00:56.043Z,6.55
2017-12-03T23:03:27.859Z,7.27
2017-12-03T23:05:59.109Z,6.57
2017-12-03T23:08:30.103Z,7.62
2017-12-03T23:11:02.158Z,6.50
2017-12-03T23:13:33.986Z,9.38
2017-12-03T23:16:05.042Z,6.30
2017-12-03T23:18:36.054Z,6.82
2017-12-03T23:21:06.986Z,6.43
2017-12-03T23:23:38.406Z,6.53
2017-12-03T23:27:35.247Z,7.10
2017-12-03T23:30:08.060Z,7.80
2017-12-03T23:32:40.619Z,6.85
2017-12-03T23:35:12.310Z,7.72
2017-12-03T23:37:44.750Z,7.80
2017-12-03T23:40:16.701Z,6.05
2017-12-03T23:42:48.630Z,6.82
2017-12-03T23:45:20.392Z,8.15
2017-12-03T23:47:52.474Z,8.10
2017-12-03T23:50:24.237Z,7.78
2017-12-03T23:52:56.089Z,7.18
2017-12-03T23:55:27.451Z,6.20
2017-12-03T23:57:58.771Z,7.37
